sensor_id;sensor_type;location;lat;lon;timestamp;pressure;altitude;pressure_sealevel;temperature;humidity
35419;BME280;21525;41.240;16.500;2023-07-20T00:00:52;100576.44;;;36.69;41.78
35419;BME280;21525;41.240;16.500;2023-07-20T00:03:20;100570.88;;;36.77;42.01
35419;BME280;21525;41.240;16.500;2023-07-20T00:05:53;100566.84;;;36.52;43.82
35419;BME280;21525;41.240;16.500;2023-07-20T00:08:19;100566.44;;;36.70;44.37
35419;BME280;21525;41.240;16.500;2023-07-20T00:10:45;100551.59;;;36.65;45.21
35419;BME280;21525;41.240;16.500;2023-07-20T00:13:11;100554.66;;;36.41;47.86
35419;BME280;21525;41.240;16.500;2023-07-20T00:15:37;100550.53;;;36.45;48.55
35419;BME280;21525;41.240;16.500;2023-07-20T00:18:06;100553.88;;;36.47;49.81
35419;BME280;21525;41.240;16.500;2023-07-20T00:20:32;100548.06;;;36.29;50.80
35419;BME280;21525;41.240;16.500;2023-07-20T00:22:57;100542.34;;;36.24;52.22
35419;BME280;21525;41.240;16.500;2023-07-20T00:25:24;100538.94;;;36.51;51.66
35419;BME280;21525;41.240;16.500;2023-07-20T00:27:50;100524.09;;;36.47;51.83
35419;BME280;21525;41.240;16.500;2023-07-20T00:30:16;100537.78;;;36.82;48.96
35419;BME280;21525;41.240;16.500;2023-07-20T00:32:43;100539.22;;;36.78;47.77
35419;BME280;21525;41.240;16.500;2023-07-20T00:35:09;100543.66;;;36.64;47.15
35419;BME280;21525;41.240;16.500;2023-07-20T00:37:35;100542.16;;;36.61;46.51
35419;BME280;21525;41.240;16.500;2023-07-20T00:40:01;100539.69;;;36.45;45.73
35419;BME280;21525;41.240;16.500;2023-07-20T00:42:28;100542.75;;;36.36;45.83
35419;BME280;21525;41.240;16.500;2023-07-20T00:44:54;100546.59;;;36.48;45.79
35419;BME280;21525;41.240;16.500;2023-07-20T00:47:20;100549.50;;;36.46;45.81
35419;BME280;21525;41.240;16.500;2023-07-20T00:49:46;100535.19;;;36.31;45.87
35419;BME280;21525;41.240;16.500;2023-07-20T00:52:13;100529.78;;;36.31;45.84
35419;BME280;21525;41.240;16.500;2023-07-20T00:54:42;100526.91;;;36.39;44.94
35419;BME280;21525;41.240;16.500;2023-07-20T00:57:09;100526.88;;;36.32;45.28
35419;BME280;21525;41.240;16.500;2023-07-20T00:59:35;100524.22;;;36.39;44.58
35419;BME280;21525;41.240;16.500;2023-07-20T01:02:02;100524.81;;;36.56;44.56
35419;BME280;21525;41.240;16.500;2023-07-20T01:04:29;100528.88;;;36.45;44.66
35419;BME280;21525;41.240;16.500;2023-07-20T01:07:12;100523.78;;;36.36;44.45
35419;BME280;21525;41.240;16.500;2023-07-20T01:09:45;100511.13;;;36.43;42.83
35419;BME280;21525;41.240;16.500;2023-07-20T01:12:35;100514.09;;;36.26;41.41
35419;BME280;21525;41.240;16.500;2023-07-20T01:15:06;100517.25;;;36.30;40.60
35419;BME280;21525;41.240;16.500;2023-07-20T01:17:34;100522.22;;;36.48;39.95
35419;BME280;21525;41.240;16.500;2023-07-20T01:20:00;100518.78;;;36.39;39.28
35419;BME280;21525;41.240;16.500;2023-07-20T01:25:44;100527.72;;;36.54;36.18
35419;BME280;21525;41.240;16.500;2023-07-20T01:28:20;100518.84;;;36.24;35.21
35419;BME280;21525;41.240;16.500;2023-07-20T01:33:35;100505.78;;;36.49;34.11
35419;BME280;21525;41.240;16.500;2023-07-20T01:36:02;100508.09;;;36.52;33.78
35419;BME280;21525;41.240;16.500;2023-07-20T01:38:28;100508.59;;;36.41;33.42
35419;BME280;21525;41.240;16.500;2023-07-20T01:40:55;100505.19;;;36.54;33.48
35419;BME280;21525;41.240;16.500;2023-07-20T01:43:21;100497.84;;;36.48;33.47
35419;BME280;21525;41.240;16.500;2023-07-20T01:45:47;100501.13;;;36.43;33.31
35419;BME280;21525;41.240;16.500;2023-07-20T01:48:13;100507.25;;;35.94;33.89
35419;BME280;21525;41.240;16.500;2023-07-20T01:50:38;100502.63;;;36.10;33.42
35419;BME280;21525;41.240;16.500;2023-07-20T01:53:04;100512.56;;;36.03;33.62
35419;BME280;21525;41.240;16.500;2023-07-20T01:55:30;100523.09;;;35.97;33.38
35419;BME280;21525;41.240;16.500;2023-07-20T01:57:56;100517.41;;;35.92;33.43
35419;BME280;21525;41.240;16.500;2023-07-20T02:00:22;100515.19;;;35.96;33.28
35419;BME280;21525;41.240;16.500;2023-07-20T02:02:50;100517.59;;;35.91;33.05
35419;BME280;21525;41.240;16.500;2023-07-20T02:05:16;100509.03;;;35.87;32.97
35419;BME280;21525;41.240;16.500;2023-07-20T02:07:42;100518.72;;;35.96;32.69
35419;BME280;21525;41.240;16.500;2023-07-20T02:10:09;100513.31;;;35.96;32.78
35419;BME280;21525;41.240;16.500;2023-07-20T02:12:35;100505.41;;;36.16;32.71
35419;BME280;21525;41.240;16.500;2023-07-20T02:15:02;100500.50;;;35.76;32.97
35419;BME280;21525;41.240;16.500;2023-07-20T02:17:28;100501.97;;;36.08;32.52
35419;BME280;21525;41.240;16.500;2023-07-20T02:19:55;100505.38;;;35.95;32.87
35419;BME280;21525;41.240;16.500;2023-07-20T02:22:21;100502.75;;;36.01;33.05
35419;BME280;21525;41.240;16.500;2023-07-20T02:24:47;100502.63;;;36.10;32.77
35419;BME280;21525;41.240;16.500;2023-07-20T02:27:13;100502.78;;;36.23;32.39
35419;BME280;21525;41.240;16.500;2023-07-20T02:29:40;100498.28;;;36.51;32.32
35419;BME280;21525;41.240;16.500;2023-07-20T02:32:07;100493.41;;;36.04;32.65
35419;BME280;21525;41.240;16.500;2023-07-20T02:34:32;100487.03;;;36.26;32.47
35419;BME280;21525;41.240;16.500;2023-07-20T02:36:58;100487.09;;;36.33;32.59
35419;BME280;21525;41.240;16.500;2023-07-20T02:39:29;100482.91;;;36.30;32.19
35419;BME280;21525;41.240;16.500;2023-07-20T02:41:56;100479.72;;;36.27;32.35
35419;BME280;21525;41.240;16.500;2023-07-20T02:44:21;100484.13;;;36.28;31.96
35419;BME280;21525;41.240;16.500;2023-07-20T02:46:47;100474.75;;;36.73;31.41
35419;BME280;21525;41.240;16.500;2023-07-20T02:49:15;100477.72;;;36.78;31.15
35419;BME280;21525;41.240;16.500;2023-07-20T02:51:42;100478.75;;;36.56;31.11
35419;BME280;21525;41.240;16.500;2023-07-20T02:54:08;100475.84;;;36.79;31.05
35419;BME280;21525;41.240;16.500;2023-07-20T02:56:34;100478.84;;;37.18;30.21
35419;BME280;21525;41.240;16.500;2023-07-20T02:59:01;100477.28;;;36.53;30.84
35419;BME280;21525;41.240;16.500;2023-07-20T03:01:27;100470.06;;;36.60;30.51
35419;BME280;21525;41.240;16.500;2023-07-20T03:03:55;100460.97;;;36.96;29.95
35419;BME280;21525;41.240;16.500;2023-07-20T03:06:21;100460.03;;;36.82;30.08
35419;BME280;21525;41.240;16.500;2023-07-20T03:08:47;100467.44;;;36.95;29.97
35419;BME280;21525;41.240;16.500;2023-07-20T03:11:14;100465.25;;;36.84;29.74
35419;BME280;21525;41.240;16.500;2023-07-20T03:13:41;100459.50;;;36.93;29.47
35419;BME280;21525;41.240;16.500;2023-07-20T03:16:08;100467.53;;;36.59;29.95
35419;BME280;21525;41.240;16.500;2023-07-20T03:18:37;100461.19;;;36.73;29.63
35419;BME280;21525;41.240;16.500;2023-07-20T03:21:08;100463.28;;;36.71;29.50
35419;BME280;21525;41.240;16.500;2023-07-20T03:23:37;100466.56;;;36.66;29.41
35419;BME280;21525;41.240;16.500;2023-07-20T03:26:02;100466.00;;;36.99;29.07
35419;BME280;21525;41.240;16.500;2023-07-20T03:28:28;100464.28;;;36.91;29.07
35419;BME280;21525;41.240;16.500;2023-07-20T03:30:58;100458.03;;;36.91;29.00
35419;BME280;21525;41.240;16.500;2023-07-20T03:33:27;100468.50;;;36.51;29.19
35419;BME280;21525;41.240;16.500;2023-07-20T03:35:53;100471.41;;;36.28;29.00
35419;BME280;21525;41.240;16.500;2023-07-20T03:38:20;100460.88;;;36.83;28.28
35419;BME280;21525;41.240;16.500;2023-07-20T03:40:53;100472.50;;;37.05;27.93
35419;BME280;21525;41.240;16.500;2023-07-20T03:43:20;100480.03;;;36.81;28.08
35419;BME280;21525;41.240;16.500;2023-07-20T03:45:47;100482.75;;;37.09;27.32
35419;BME280;21525;41.240;16.500;2023-07-20T03:48:15;100488.75;;;37.26;27.67
35419;BME280;21525;41.240;16.500;2023-07-20T03:50:41;100496.53;;;37.14;27.39
35419;BME280;21525;41.240;16.500;2023-07-20T03:53:06;100492.34;;;37.12;27.20
35419;BME280;21525;41.240;16.500;2023-07-20T03:55:32;100497.13;;;36.39;28.19
35419;BME280;21525;41.240;16.500;2023-07-20T03:57:58;100494.19;;;36.34;28.13
35419;BME280;21525;41.240;16.500;2023-07-20T04:00:24;100497.06;;;37.24;27.11
35419;BME280;21525;41.240;16.500;2023-07-20T04:02:50;100498.00;;;37.45;26.80
35419;BME280;21525;41.240;16.500;2023-07-20T04:05:15;100500.94;;;37.43;26.88
35419;BME280;21525;41.240;16.500;2023-07-20T04:07:41;100509.28;;;37.76;26.57
35419;BME280;21525;41.240;16.500;2023-07-20T04:10:07;100512.78;;;37.70;27.15
35419;BME280;21525;41.240;16.500;2023-07-20T04:12:35;100521.09;;;37.62;27.55
35419;BME280;21525;41.240;16.500;2023-07-20T04:15:01;100521.16;;;37.75;26.83
35419;BME280;21525;41.240;16.500;2023-07-20T04:17:29;100520.41;;;37.88;27.29
35419;BME280;21525;41.240;16.500;2023-07-20T04:19:55;100521.16;;;37.69;27.38
35419;BME280;21525;41.240;16.500;2023-07-20T04:22:21;100516.69;;;38.09;26.76
35419;BME280;21525;41.240;16.500;2023-07-20T04:24:47;100519.31;;;38.30;26.66
35419;BME280;21525;41.240;16.500;2023-07-20T04:27:13;100528.97;;;38.52;26.91
35419;BME280;21525;41.240;16.500;2023-07-20T04:29:39;100521.91;;;39.11;26.76
35419;BME280;21525;41.240;16.500;2023-07-20T04:32:05;100527.34;;;38.91;26.09
35419;BME280;21525;41.240;16.500;2023-07-20T04:34:31;100527.34;;;39.24;26.17
35419;BME280;21525;41.240;16.500;2023-07-20T04:36:57;100522.97;;;39.03;25.73
35419;BME280;21525;41.240;16.500;2023-07-20T04:39:24;100523.59;;;38.92;26.29
35419;BME280;21525;41.240;16.500;2023-07-20T04:41:50;100512.22;;;39.41;25.71
35419;BME280;21525;41.240;16.500;2023-07-20T04:44:17;100511.44;;;39.99;25.29
35419;BME280;21525;41.240;16.500;2023-07-20T04:46:43;100508.69;;;41.00;24.83
35419;BME280;21525;41.240;16.500;2023-07-20T04:49:08;100510.97;;;41.46;24.08
35419;BME280;21525;41.240;16.500;2023-07-20T04:51:38;100504.13;;;41.91;23.90
35419;BME280;21525;41.240;16.500;2023-07-20T04:54:04;100506.09;;;42.03;23.71
35419;BME280;21525;41.240;16.500;2023-07-20T04:56:34;100511.06;;;42.54;23.18
35419;BME280;21525;41.240;16.500;2023-07-20T04:59:01;100516.38;;;43.02;22.68
35419;BME280;21525;41.240;16.500;2023-07-20T05:01:27;100516.84;;;43.34;22.39
35419;BME280;21525;41.240;16.500;2023-07-20T05:03:53;100519.34;;;43.01;23.14
35419;BME280;21525;41.240;16.500;2023-07-20T05:06:19;100528.28;;;43.31;22.94
35419;BME280;21525;41.240;16.500;2023-07-20T05:08:45;100518.84;;;43.62;22.54
35419;BME280;21525;41.240;16.500;2023-07-20T05:11:11;100525.41;;;43.14;22.96
35419;BME280;21525;41.240;16.500;2023-07-20T05:13:38;100519.81;;;43.33;23.00
35419;BME280;21525;41.240;16.500;2023-07-20T05:16:03;100521.72;;;43.96;22.54
35419;BME280;21525;41.240;16.500;2023-07-20T05:18:32;100523.56;;;44.64;22.09
35419;BME280;21525;41.240;16.500;2023-07-20T05:20:59;100529.81;;;44.76;22.15
35419;BME280;21525;41.240;16.500;2023-07-20T05:23:25;100532.00;;;45.90;21.22
35419;BME280;21525;41.240;16.500;2023-07-20T05:25:58;100537.28;;;45.31;21.85
35419;BME280;21525;41.240;16.500;2023-07-20T05:28:25;100530.09;;;46.12;21.18
35419;BME280;21525;41.240;16.500;2023-07-20T05:30:52;100526.22;;;46.35;21.17
35419;BME280;21525;41.240;16.500;2023-07-20T05:33:19;100524.16;;;46.52;20.58
35419;BME280;21525;41.240;16.500;2023-07-20T05:35:45;100521.78;;;46.61;20.65
35419;BME280;21525;41.240;16.500;2023-07-20T05:38:10;100523.28;;;46.19;20.36
35419;BME280;21525;41.240;16.500;2023-07-20T05:40:41;100531.78;;;45.69;20.90
35419;BME280;21525;41.240;16.500;2023-07-20T05:43:08;100535.56;;;45.08;21.38
35419;BME280;21525;41.240;16.500;2023-07-20T05:45:34;100526.81;;;44.94;21.89
35419;BME280;21525;41.240;16.500;2023-07-20T05:47:59;100532.72;;;45.58;20.87
35419;BME280;21525;41.240;16.500;2023-07-20T05:50:25;100538.56;;;45.06;21.54
35419;BME280;21525;41.240;16.500;2023-07-20T05:52:54;100537.88;;;44.99;21.48
35419;BME280;21525;41.240;16.500;2023-07-20T05:55:20;100541.53;;;44.88;21.14
35419;BME280;21525;41.240;16.500;2023-07-20T05:57:46;100546.34;;;44.64;21.51
35419;BME280;21525;41.240;16.500;2023-07-20T06:00:13;100551.09;;;44.69;21.55
35419;BME280;21525;41.240;16.500;2023-07-20T06:02:39;100555.53;;;44.13;21.64
35419;BME280;21525;41.240;16.500;2023-07-20T06:05:08;100546.75;;;44.56;21.42
35419;BME280;21525;41.240;16.500;2023-07-20T06:07:37;100552.00;;;44.74;21.23
35419;BME280;21525;41.240;16.500;2023-07-20T06:10:04;100554.28;;;44.20;21.46
35419;BME280;21525;41.240;16.500;2023-07-20T06:12:31;100551.63;;;44.82;21.46
35419;BME280;21525;41.240;16.500;2023-07-20T06:15:02;100550.66;;;44.43;21.29
35419;BME280;21525;41.240;16.500;2023-07-20T06:17:28;100556.66;;;44.74;21.60
35419;BME280;21525;41.240;16.500;2023-07-20T06:19:54;100560.00;;;45.09;20.75
35419;BME280;21525;41.240;16.500;2023-07-20T06:22:20;100556.84;;;45.17;21.01
35419;BME280;21525;41.240;16.500;2023-07-20T06:24:46;100566.91;;;44.95;20.77
35419;BME280;21525;41.240;16.500;2023-07-20T06:27:11;100558.78;;;45.56;20.54
35419;BME280;21525;41.240;16.500;2023-07-20T06:29:38;100565.66;;;45.19;20.88
35419;BME280;21525;41.240;16.500;2023-07-20T06:32:05;100562.06;;;45.74;20.17
35419;BME280;21525;41.240;16.500;2023-07-20T06:34:31;100563.22;;;45.78;20.18
35419;BME280;21525;41.240;16.500;2023-07-20T06:36:56;100567.56;;;45.74;20.07
35419;BME280;21525;41.240;16.500;2023-07-20T06:39:22;100566.16;;;45.72;20.06
35419;BME280;21525;41.240;16.500;2023-07-20T06:41:48;100563.84;;;45.64;20.20
35419;BME280;21525;41.240;16.500;2023-07-20T06:44:14;100575.41;;;45.49;20.45
35419;BME280;21525;41.240;16.500;2023-07-20T06:46:39;100580.88;;;45.44;20.32
35419;BME280;21525;41.240;16.500;2023-07-20T06:49:06;100571.09;;;45.53;20.32
35419;BME280;21525;41.240;16.500;2023-07-20T06:51:33;100567.66;;;45.84;19.87
35419;BME280;21525;41.240;16.500;2023-07-20T06:53:59;100578.41;;;45.64;19.94
35419;BME280;21525;41.240;16.500;2023-07-20T06:56:25;100578.75;;;45.51;19.88
35419;BME280;21525;41.240;16.500;2023-07-20T06:58:50;100581.91;;;45.60;20.11
35419;BME280;21525;41.240;16.500;2023-07-20T07:01:16;100569.91;;;45.88;20.10
35419;BME280;21525;41.240;16.500;2023-07-20T07:03:42;100577.72;;;45.74;19.99
35419;BME280;21525;41.240;16.500;2023-07-20T07:06:09;100575.34;;;45.61;19.99
35419;BME280;21525;41.240;16.500;2023-07-20T07:08:36;100581.22;;;45.69;19.90
35419;BME280;21525;41.240;16.500;2023-07-20T07:11:01;100579.72;;;45.78;20.17
35419;BME280;21525;41.240;16.500;2023-07-20T07:13:27;100577.25;;;45.60;20.22
35419;BME280;21525;41.240;16.500;2023-07-20T07:15:53;100580.56;;;46.01;20.29
35419;BME280;21525;41.240;16.500;2023-07-20T07:18:19;100578.81;;;45.95;20.20
35419;BME280;21525;41.240;16.500;2023-07-20T07:20:53;100571.78;;;46.04;19.82
35419;BME280;21525;41.240;16.500;2023-07-20T07:23:19;100575.41;;;45.88;20.08
35419;BME280;21525;41.240;16.500;2023-07-20T07:25:45;100570.06;;;46.46;24.86
35419;BME280;21525;41.240;16.500;2023-07-20T07:28:11;100567.47;;;45.91;21.61
35419;BME280;21525;41.240;16.500;2023-07-20T07:30:36;100566.47;;;45.75;23.20
35419;BME280;21525;41.240;16.500;2023-07-20T07:33:03;100575.66;;;45.64;22.01
35419;BME280;21525;41.240;16.500;2023-07-20T07:35:28;100578.56;;;45.96;22.19
35419;BME280;21525;41.240;16.500;2023-07-20T07:37:54;100574.41;;;45.55;21.97
35419;BME280;21525;41.240;16.500;2023-07-20T07:40:20;100578.16;;;46.31;21.54
35419;BME280;21525;41.240;16.500;2023-07-20T07:42:46;100580.97;;;46.36;21.54
35419;BME280;21525;41.240;16.500;2023-07-20T07:45:37;100577.84;;;45.84;20.78
35419;BME280;21525;41.240;16.500;2023-07-20T07:48:04;100574.06;;;45.68;21.13
35419;BME280;21525;41.240;16.500;2023-07-20T07:50:30;100577.75;;;45.96;20.44
35419;BME280;21525;41.240;16.500;2023-07-20T07:52:56;100579.69;;;46.71;20.75
35419;BME280;21525;41.240;16.500;2023-07-20T07:55:22;100580.00;;;47.06;20.82
35419;BME280;21525;41.240;16.500;2023-07-20T07:57:49;100569.34;;;47.20;20.45
35419;BME280;21525;41.240;16.500;2023-07-20T08:00:15;100575.63;;;47.53;20.43
35419;BME280;21525;41.240;16.500;2023-07-20T08:02:45;100582.09;;;47.31;20.35
35419;BME280;21525;41.240;16.500;2023-07-20T08:05:12;100581.91;;;46.74;20.04
35419;BME280;21525;41.240;16.500;2023-07-20T08:07:38;100581.50;;;46.92;20.38
35419;BME280;21525;41.240;16.500;2023-07-20T08:10:04;100578.22;;;46.95;19.95
35419;BME280;21525;41.240;16.500;2023-07-20T08:12:30;100580.97;;;47.74;20.12
35419;BME280;21525;41.240;16.500;2023-07-20T08:14:56;100583.88;;;47.53;19.67
35419;BME280;21525;41.240;16.500;2023-07-20T08:17:22;100584.44;;;47.55;19.61
35419;BME280;21525;41.240;16.500;2023-07-20T08:19:48;100592.16;;;47.10;21.16
35419;BME280;21525;41.240;16.500;2023-07-20T08:22:13;100598.69;;;46.45;22.92
35419;BME280;21525;41.240;16.500;2023-07-20T08:24:40;100609.06;;;45.95;24.77
35419;BME280;21525;41.240;16.500;2023-07-20T08:27:06;100613.28;;;46.02;25.25
35419;BME280;21525;41.240;16.500;2023-07-20T08:29:32;100618.41;;;46.37;25.25
35419;BME280;21525;41.240;16.500;2023-07-20T08:31:57;100618.25;;;46.27;25.08
35419;BME280;21525;41.240;16.500;2023-07-20T08:34:23;100617.25;;;46.11;24.70
35419;BME280;21525;41.240;16.500;2023-07-20T08:36:50;100635.91;;;46.31;24.48
35419;BME280;21525;41.240;16.500;2023-07-20T08:39:16;100629.19;;;46.22;25.21
35419;BME280;21525;41.240;16.500;2023-07-20T08:41:46;100629.34;;;45.72;26.43
35419;BME280;21525;41.240;16.500;2023-07-20T08:44:12;100627.50;;;45.77;26.32
35419;BME280;21525;41.240;16.500;2023-07-20T08:46:38;100636.28;;;45.41;29.79
35419;BME280;21525;41.240;16.500;2023-07-20T08:49:06;100639.81;;;44.34;32.83
35419;BME280;21525;41.240;16.500;2023-07-20T08:51:33;100633.53;;;44.62;32.05
35419;BME280;21525;41.240;16.500;2023-07-20T08:53:59;100642.75;;;44.16;32.03
35419;BME280;21525;41.240;16.500;2023-07-20T08:56:26;100634.34;;;42.82;34.79
35419;BME280;21525;41.240;16.500;2023-07-20T08:58:53;100634.56;;;42.51;35.79
35419;BME280;21525;41.240;16.500;2023-07-20T09:01:19;100641.41;;;43.13;33.85
35419;BME280;21525;41.240;16.500;2023-07-20T09:03:45;100641.56;;;43.18;34.14
35419;BME280;21525;41.240;16.500;2023-07-20T09:06:12;100644.59;;;42.69;35.60
35419;BME280;21525;41.240;16.500;2023-07-20T09:08:39;100638.06;;;43.00;36.72
35419;BME280;21525;41.240;16.500;2023-07-20T09:11:06;100647.59;;;41.76;38.86
35419;BME280;21525;41.240;16.500;2023-07-20T09:13:33;100650.25;;;41.08;40.87
35419;BME280;21525;41.240;16.500;2023-07-20T09:15:59;100649.06;;;40.97;40.77
35419;BME280;21525;41.240;16.500;2023-07-20T09:18:27;100645.84;;;41.38;39.79
35419;BME280;21525;41.240;16.500;2023-07-20T09:21:04;100642.63;;;41.16;39.74
35419;BME280;21525;41.240;16.500;2023-07-20T09:23:36;100653.94;;;42.13;38.37
35419;BME280;21525;41.240;16.500;2023-07-20T09:26:12;100650.91;;;42.21;37.76
35419;BME280;21525;41.240;16.500;2023-07-20T09:28:44;100647.31;;;41.84;36.26
35419;BME280;21525;41.240;16.500;2023-07-20T09:31:17;100632.97;;;42.73;36.55
35419;BME280;21525;41.240;16.500;2023-07-20T09:33:43;100644.00;;;42.67;35.21
35419;BME280;21525;41.240;16.500;2023-07-20T09:36:12;100635.00;;;42.30;35.14
35419;BME280;21525;41.240;16.500;2023-07-20T09:38:41;100640.31;;;41.45;35.60
35419;BME280;21525;41.240;16.500;2023-07-20T09:41:13;100639.31;;;41.64;36.28
35419;BME280;21525;41.240;16.500;2023-07-20T09:43:39;100649.38;;;41.88;36.70
35419;BME280;21525;41.240;16.500;2023-07-20T09:46:05;100644.88;;;41.51;36.95
35419;BME280;21525;41.240;16.500;2023-07-20T09:48:31;100639.09;;;41.66;35.78
35419;BME280;21525;41.240;16.500;2023-07-20T09:50:57;100646.13;;;42.16;35.40
35419;BME280;21525;41.240;16.500;2023-07-20T09:53:24;100651.97;;;41.02;37.07
35419;BME280;21525;41.240;16.500;2023-07-20T09:55:52;100645.00;;;41.63;36.38
35419;BME280;21525;41.240;16.500;2023-07-20T09:58:18;100645.78;;;40.88;36.58
35419;BME280;21525;41.240;16.500;2023-07-20T10:00:45;100652.84;;;41.96;35.91
35419;BME280;21525;41.240;16.500;2023-07-20T10:03:20;100644.84;;;41.01;37.19
35419;BME280;21525;41.240;16.500;2023-07-20T10:05:58;100646.19;;;40.92;37.14
35419;BME280;21525;41.240;16.500;2023-07-20T10:08:26;100643.88;;;41.70;35.70
35419;BME280;21525;41.240;16.500;2023-07-20T10:10:52;100651.19;;;40.57;37.44
35419;BME280;21525;41.240;16.500;2023-07-20T10:13:21;100653.94;;;39.26;41.41
35419;BME280;21525;41.240;16.500;2023-07-20T10:15:54;100656.84;;;39.84;42.10
35419;BME280;21525;41.240;16.500;2023-07-20T10:21:00;100651.00;;;39.94;41.88
35419;BME280;21525;41.240;16.500;2023-07-20T10:23:29;100638.31;;;40.26;41.96
35419;BME280;21525;41.240;16.500;2023-07-20T10:25:56;100646.19;;;40.47;43.43
35419;BME280;21525;41.240;16.500;2023-07-20T10:28:23;100652.44;;;39.04;47.26
35419;BME280;21525;41.240;16.500;2023-07-20T10:30:50;100640.78;;;39.30;45.65
35419;BME280;21525;41.240;16.500;2023-07-20T10:33:17;100648.69;;;39.84;45.33
35419;BME280;21525;41.240;16.500;2023-07-20T10:35:54;100650.72;;;38.77;47.95
35419;BME280;21525;41.240;16.500;2023-07-20T10:38:38;100647.38;;;38.81;48.38
35419;BME280;21525;41.240;16.500;2023-07-20T10:41:18;100646.75;;;38.86;49.60
35419;BME280;21525;41.240;16.500;2023-07-20T10:43:46;100651.25;;;39.46;48.43
35419;BME280;21525;41.240;16.500;2023-07-20T10:46:13;100658.88;;;40.15;45.77
35419;BME280;21525;41.240;16.500;2023-07-20T10:49:01;100658.53;;;39.79;46.94
35419;BME280;21525;41.240;16.500;2023-07-20T10:51:28;100660.63;;;39.04;50.81
35419;BME280;21525;41.240;16.500;2023-07-20T10:53:57;100649.13;;;39.68;49.67
35419;BME280;21525;41.240;16.500;2023-07-20T10:56:28;100654.66;;;38.68;52.67
35419;BME280;21525;41.240;16.500;2023-07-20T10:58:58;100656.66;;;39.73;50.70
35419;BME280;21525;41.240;16.500;2023-07-20T11:01:28;100657.72;;;38.51;55.20
35419;BME280;21525;41.240;16.500;2023-07-20T11:03:57;100650.28;;;38.73;54.97
35419;BME280;21525;41.240;16.500;2023-07-20T11:09:09;100645.66;;;38.60;57.25
35419;BME280;21525;41.240;16.500;2023-07-20T11:11:41;100644.28;;;38.30;57.55
35419;BME280;21525;41.240;16.500;2023-07-20T11:14:22;100646.94;;;37.61;58.67
35419;BME280;21525;41.240;16.500;2023-07-20T11:16:49;100656.53;;;37.14;60.61
35419;BME280;21525;41.240;16.500;2023-07-20T11:21:51;100641.78;;;37.66;61.15
35419;BME280;21525;41.240;16.500;2023-07-20T11:24:17;100634.22;;;38.24;59.47
35419;BME280;21525;41.240;16.500;2023-07-20T11:26:44;100632.75;;;37.38;60.57
35419;BME280;21525;41.240;16.500;2023-07-20T11:29:10;100633.25;;;37.48;60.36
35419;BME280;21525;41.240;16.500;2023-07-20T11:31:41;100628.78;;;37.33;62.21
35419;BME280;21525;41.240;16.500;2023-07-20T11:34:15;100627.19;;;37.67;59.51
35419;BME280;21525;41.240;16.500;2023-07-20T11:36:42;100623.72;;;37.09;60.30
35419;BME280;21525;41.240;16.500;2023-07-20T11:39:10;100630.34;;;37.00;60.47
35419;BME280;21525;41.240;16.500;2023-07-20T11:41:36;100633.88;;;37.71;58.33
35419;BME280;21525;41.240;16.500;2023-07-20T11:44:02;100623.50;;;37.25;58.14
35419;BME280;21525;41.240;16.500;2023-07-20T11:46:28;100624.69;;;38.07;53.26
35419;BME280;21525;41.240;16.500;2023-07-20T11:48:58;100616.66;;;38.26;53.88
35419;BME280;21525;41.240;16.500;2023-07-20T11:51:27;100619.63;;;38.38;53.14
35419;BME280;21525;41.240;16.500;2023-07-20T11:53:53;100613.28;;;38.66;50.34
35419;BME280;21525;41.240;16.500;2023-07-20T11:56:19;100612.63;;;38.63;47.84
35419;BME280;21525;41.240;16.500;2023-07-20T11:58:45;100618.56;;;38.33;49.11
35419;BME280;21525;41.240;16.500;2023-07-20T12:01:15;100613.91;;;38.20;50.02
35419;BME280;21525;41.240;16.500;2023-07-20T12:03:43;100615.00;;;37.14;52.86
35419;BME280;21525;41.240;16.500;2023-07-20T12:06:09;100625.31;;;38.09;50.31
35419;BME280;21525;41.240;16.500;2023-07-20T12:08:43;100610.59;;;37.27;56.16
35419;BME280;21525;41.240;16.500;2023-07-20T12:11:09;100616.13;;;37.19;54.78
35419;BME280;21525;41.240;16.500;2023-07-20T12:13:57;100610.28;;;37.72;51.30
35419;BME280;21525;41.240;16.500;2023-07-20T12:16:26;100600.25;;;38.54;50.63
35419;BME280;21525;41.240;16.500;2023-07-20T12:18:59;100596.91;;;38.52;52.06
35419;BME280;21525;41.240;16.500;2023-07-20T12:21:25;100595.41;;;38.50;51.50
35419;BME280;21525;41.240;16.500;2023-07-20T12:23:51;100601.59;;;38.85;51.09
35419;BME280;21525;41.240;16.500;2023-07-20T12:26:17;100603.22;;;38.12;54.16
35419;BME280;21525;41.240;16.500;2023-07-20T12:28:42;100602.72;;;37.39;57.09
35419;BME280;21525;41.240;16.500;2023-07-20T12:31:09;100599.69;;;38.18;55.90
35419;BME280;21525;41.240;16.500;2023-07-20T12:33:37;100601.06;;;38.07;54.19
35419;BME280;21525;41.240;16.500;2023-07-20T12:36:04;100605.00;;;37.91;55.76
35419;BME280;21525;41.240;16.500;2023-07-20T12:38:30;100589.59;;;37.15;58.02
35419;BME280;21525;41.240;16.500;2023-07-20T12:41:00;100593.25;;;37.07;59.35
35419;BME280;21525;41.240;16.500;2023-07-20T12:43:26;100583.47;;;38.31;54.25
35419;BME280;21525;41.240;16.500;2023-07-20T12:45:52;100590.28;;;38.14;54.96
35419;BME280;21525;41.240;16.500;2023-07-20T12:48:18;100593.75;;;38.01;55.69
35419;BME280;21525;41.240;16.500;2023-07-20T12:50:44;100598.97;;;37.33;58.85
35419;BME280;21525;41.240;16.500;2023-07-20T12:53:10;100596.97;;;37.49;57.98
35419;BME280;21525;41.240;16.500;2023-07-20T12:55:37;100582.44;;;38.45;56.31